首页
METAR-TAF:

METAR-TAF

机场 :

Chicago Executive Airport

Wheeling / Prospect Heights, 伊利诺伊州, 美国

纬度: 42-07-15N, 经度: 087-54-17W, 海拔: 197米

当前天气观测

该预报发布于12分钟前的20:59 UTC
风速11节,风向西北,有时为20节阵风
温度 0°C
湿度 64%
气压 1008 hPa
能見度: 16.1公里
阴天层高于1700英尺

METAR: KPWK 142059Z 31011G20KT 10SM OVC017 00/M06 A2976 RMK AO2 T00001056

时间: 15:11 (21:11 UTC)


TAF: 丢失

超过4000个机场的气象观测和天气预报(METAR&TAF报告)。

可查询的气象台以黄色和红色小点在地图上表示。

将鼠标移到小点上方,可查看气象台名称。

然后点击查看天气观测和预报。

如需切换地图:点击带黑十字的绿色按钮放大地图;点击带横线的绿色按钮缩小地图;或者点击绿色箭头查看邻近地区的地图。


METAR-TAF: